sensor_id;sensor_type;location;lat;lon;timestamp;temperature;humidity
70826;SHT31;58446;41.490;22.098;2022-12-18T00:00:57;14.08;83.30
70826;SHT31;58446;41.490;22.098;2022-12-18T00:03:23;14.16;83.27
70826;SHT31;58446;41.490;22.098;2022-12-18T00:05:52;14.12;83.34
70826;SHT31;58446;41.490;22.098;2022-12-18T00:08:19;14.17;83.37
70826;SHT31;58446;41.490;22.098;2022-12-18T00:10:45;14.22;83.20
70826;SHT31;58446;41.490;22.098;2022-12-18T00:13:12;14.23;83.04
70826;SHT31;58446;41.490;22.098;2022-12-18T00:15:39;14.34;82.72
70826;SHT31;58446;41.490;22.098;2022-12-18T00:18:05;14.37;82.54
70826;SHT31;58446;41.490;22.098;2022-12-18T00:20:31;14.27;82.66
70826;SHT31;58446;41.490;22.098;2022-12-18T00:23:00;14.17;83.12
70826;SHT31;58446;41.490;22.098;2022-12-18T00:25:26;14.16;83.37
70826;SHT31;58446;41.490;22.098;2022-12-18T00:27:52;14.02;83.61
70826;SHT31;58446;41.490;22.098;2022-12-18T00:30:17;13.83;84.25
70826;SHT31;58446;41.490;22.098;2022-12-18T00:32:43;13.69;84.78
70826;SHT31;58446;41.490;22.098;2022-12-18T00:35:09;13.53;85.77
70826;SHT31;58446;41.490;22.098;2022-12-18T00:37:35;13.53;85.92
70826;SHT31;58446;41.490;22.098;2022-12-18T00:40:00;13.58;86.00
70826;SHT31;58446;41.490;22.098;2022-12-18T00:42:26;13.58;86.09
70826;SHT31;58446;41.490;22.098;2022-12-18T00:45:10;13.82;85.23
70826;SHT31;58446;41.490;22.098;2022-12-18T00:47:36;13.78;85.55
70826;SHT31;58446;41.490;22.098;2022-12-18T00:50:02;13.82;85.34
70826;SHT31;58446;41.490;22.098;2022-12-18T00:52:27;13.94;84.87
70826;SHT31;58446;41.490;22.098;2022-12-18T00:54:53;13.88;85.10
70826;SHT31;58446;41.490;22.098;2022-12-18T00:57:18;13.88;85.10
70826;SHT31;58446;41.490;22.098;2022-12-18T00:59:44;13.90;84.83
70826;SHT31;58446;41.490;22.098;2022-12-18T01:02:10;13.90;84.87
70826;SHT31;58446;41.490;22.098;2022-12-18T01:04:36;13.81;84.52
70826;SHT31;58446;41.490;22.098;2022-12-18T01:07:01;13.83;84.49
70826;SHT31;58446;41.490;22.098;2022-12-18T01:09:27;13.78;83.78
70826;SHT31;58446;41.490;22.098;2022-12-18T01:11:53;13.72;83.88
70826;SHT31;58446;41.490;22.098;2022-12-18T01:14:18;13.72;83.77
70826;SHT31;58446;41.490;22.098;2022-12-18T01:16:44;13.68;83.30
70826;SHT31;58446;41.490;22.098;2022-12-18T01:19:10;13.62;83.51
70826;SHT31;58446;41.490;22.098;2022-12-18T01:21:35;13.67;83.14
70826;SHT31;58446;41.490;22.098;2022-12-18T01:24:01;13.68;82.97
70826;SHT31;58446;41.490;22.098;2022-12-18T01:26:27;13.64;82.49
70826;SHT31;58446;41.490;22.098;2022-12-18T01:28:57;13.62;82.61
70826;SHT31;58446;41.490;22.098;2022-12-18T01:31:27;13.67;82.67
70826;SHT31;58446;41.490;22.098;2022-12-18T01:33:54;13.57;81.74
70826;SHT31;58446;41.490;22.098;2022-12-18T01:36:25;13.59;82.62
70826;SHT31;58446;41.490;22.098;2022-12-18T01:38:52;13.50;81.49
70826;SHT31;58446;41.490;22.098;2022-12-18T01:41:21;13.36;81.37
70826;SHT31;58446;41.490;22.098;2022-12-18T01:43:55;13.28;80.96
70826;SHT31;58446;41.490;22.098;2022-12-18T01:46:23;13.36;81.63
70826;SHT31;58446;41.490;22.098;2022-12-18T01:48:52;13.26;81.65
70826;SHT31;58446;41.490;22.098;2022-12-18T01:51:19;13.28;82.53
70826;SHT31;58446;41.490;22.098;2022-12-18T01:53:46;13.40;82.22
70826;SHT31;58446;41.490;22.098;2022-12-18T01:56:14;13.31;80.74
70826;SHT31;58446;41.490;22.098;2022-12-18T02:01:09;13.28;80.05
70826;SHT31;58446;41.490;22.098;2022-12-18T02:03:35;13.14;80.00
70826;SHT31;58446;41.490;22.098;2022-12-18T02:08:57;13.04;79.88
70826;SHT31;58446;41.490;22.098;2022-12-18T02:17:14;12.69;78.08
70826;SHT31;58446;41.490;22.098;2022-12-18T02:28:19;12.92;79.99
70826;SHT31;58446;41.490;22.098;2022-12-18T02:30:47;12.80;79.29
70826;SHT31;58446;41.490;22.098;2022-12-18T02:33:15;12.93;79.63
70826;SHT31;58446;41.490;22.098;2022-12-18T02:35:41;12.99;78.95
70826;SHT31;58446;41.490;22.098;2022-12-18T02:38:09;13.02;78.35
70826;SHT31;58446;41.490;22.098;2022-12-18T02:40:36;13.00;78.54
70826;SHT31;58446;41.490;22.098;2022-12-18T02:43:13;12.83;77.25
70826;SHT31;58446;41.490;22.098;2022-12-18T02:45:52;12.66;76.97
70826;SHT31;58446;41.490;22.098;2022-12-18T02:48:22;12.53;77.64
70826;SHT31;58446;41.490;22.098;2022-12-18T02:51:29;12.56;78.30
70826;SHT31;58446;41.490;22.098;2022-12-18T02:53:53;12.63;78.83
70826;SHT31;58446;41.490;22.098;2022-12-18T02:56:29;12.60;78.11
70826;SHT31;58446;41.490;22.098;2022-12-18T02:59:02;12.56;77.74
70826;SHT31;58446;41.490;22.098;2022-12-18T03:01:48;12.53;77.64
70826;SHT31;58446;41.490;22.098;2022-12-18T03:04:40;12.45;76.25
70826;SHT31;58446;41.490;22.098;2022-12-18T03:07:12;12.29;76.45
70826;SHT31;58446;41.490;22.098;2022-12-18T03:09:44;12.17;76.74
70826;SHT31;58446;41.490;22.098;2022-12-18T03:12:18;12.25;77.40
70826;SHT31;58446;41.490;22.098;2022-12-18T03:14:58;12.15;77.35
70826;SHT31;58446;41.490;22.098;2022-12-18T03:17:26;12.24;76.66
70826;SHT31;58446;41.490;22.098;2022-12-18T03:19:53;12.14;76.99
70826;SHT31;58446;41.490;22.098;2022-12-18T03:22:22;12.04;76.60
70826;SHT31;58446;41.490;22.098;2022-12-18T03:24:49;11.87;77.14
70826;SHT31;58446;41.490;22.098;2022-12-18T03:27:17;12.01;77.98
70826;SHT31;58446;41.490;22.098;2022-12-18T03:29:48;12.01;77.52
70826;SHT31;58446;41.490;22.098;2022-12-18T03:32:44;12.07;77.53
70826;SHT31;58446;41.490;22.098;2022-12-18T03:35:13;12.02;76.91
70826;SHT31;58446;41.490;22.098;2022-12-18T03:37:44;11.86;75.74
70826;SHT31;58446;41.490;22.098;2022-12-18T03:40:10;11.84;76.51
70826;SHT31;58446;41.490;22.098;2022-12-18T03:42:53;11.99;78.28
70826;SHT31;58446;41.490;22.098;2022-12-18T03:45:28;11.93;75.95
70826;SHT31;58446;41.490;22.098;2022-12-18T03:48:02;11.99;75.61
70826;SHT31;58446;41.490;22.098;2022-12-18T03:50:46;11.90;75.42
70826;SHT31;58446;41.490;22.098;2022-12-18T03:55:45;11.78;75.45
70826;SHT31;58446;41.490;22.098;2022-12-18T03:58:13;11.73;75.67
70826;SHT31;58446;41.490;22.098;2022-12-18T04:00:41;11.59;75.03
70826;SHT31;58446;41.490;22.098;2022-12-18T04:03:07;11.53;75.21
70826;SHT31;58446;41.490;22.098;2022-12-18T04:05:35;11.53;75.93
70826;SHT31;58446;41.490;22.098;2022-12-18T04:08:02;11.44;75.20
70826;SHT31;58446;41.490;22.098;2022-12-18T04:10:28;11.52;77.16
70826;SHT31;58446;41.490;22.098;2022-12-18T04:12:57;11.57;75.92
70826;SHT31;58446;41.490;22.098;2022-12-18T04:15:23;11.56;74.92
70826;SHT31;58446;41.490;22.098;2022-12-18T04:17:49;11.62;74.57
70826;SHT31;58446;41.490;22.098;2022-12-18T04:20:15;11.69;75.57
70826;SHT31;58446;41.490;22.098;2022-12-18T04:22:41;11.65;74.43
70826;SHT31;58446;41.490;22.098;2022-12-18T04:25:07;11.59;74.85
70826;SHT31;58446;41.490;22.098;2022-12-18T04:27:33;11.47;74.99
70826;SHT31;58446;41.490;22.098;2022-12-18T04:29:59;11.42;74.33
70826;SHT31;58446;41.490;22.098;2022-12-18T04:32:24;11.44;74.60
70826;SHT31;58446;41.490;22.098;2022-12-18T04:34:50;11.71;76.06
70826;SHT31;58446;41.490;22.098;2022-12-18T04:37:16;11.81;75.60
70826;SHT31;58446;41.490;22.098;2022-12-18T04:39:41;11.74;74.15
70826;SHT31;58446;41.490;22.098;2022-12-18T04:42:07;11.69;74.42
70826;SHT31;58446;41.490;22.098;2022-12-18T04:44:32;11.71;75.19
70826;SHT31;58446;41.490;22.098;2022-12-18T04:46:58;11.60;73.75
70826;SHT31;58446;41.490;22.098;2022-12-18T04:49:24;11.59;74.41
70826;SHT31;58446;41.490;22.098;2022-12-18T04:51:49;11.47;73.53
70826;SHT31;58446;41.490;22.098;2022-12-18T04:54:15;11.49;75.48
70826;SHT31;58446;41.490;22.098;2022-12-18T04:56:41;11.49;73.96
70826;SHT31;58446;41.490;22.098;2022-12-18T04:59:06;11.53;74.63
70826;SHT31;58446;41.490;22.098;2022-12-18T05:01:32;11.42;74.76
70826;SHT31;58446;41.490;22.098;2022-12-18T05:04:01;11.44;74.08
70826;SHT31;58446;41.490;22.098;2022-12-18T05:06:27;11.49;74.44
70826;SHT31;58446;41.490;22.098;2022-12-18T05:08:52;11.44;74.09
70826;SHT31;58446;41.490;22.098;2022-12-18T05:11:18;11.56;74.86
70826;SHT31;58446;41.490;22.098;2022-12-18T05:13:44;11.29;72.22
70826;SHT31;58446;41.490;22.098;2022-12-18T05:16:11;11.19;73.24
70826;SHT31;58446;41.490;22.098;2022-12-18T05:18:37;11.33;74.96
70826;SHT31;58446;41.490;22.098;2022-12-18T05:21:03;11.35;73.25
70826;SHT31;58446;41.490;22.098;2022-12-18T05:23:29;11.29;72.79
70826;SHT31;58446;41.490;22.098;2022-12-18T05:25:59;11.32;73.17
70826;SHT31;58446;41.490;22.098;2022-12-18T05:28:27;11.29;73.55
70826;SHT31;58446;41.490;22.098;2022-12-18T05:30:56;11.39;74.12
70826;SHT31;58446;41.490;22.098;2022-12-18T05:33:24;11.47;73.06
70826;SHT31;58446;41.490;22.098;2022-12-18T05:35:54;11.33;72.68
70826;SHT31;58446;41.490;22.098;2022-12-18T05:38:21;11.36;73.32
70826;SHT31;58446;41.490;22.098;2022-12-18T05:40:48;11.33;71.69
70826;SHT31;58446;41.490;22.098;2022-12-18T05:43:14;11.35;73.57
70826;SHT31;58446;41.490;22.098;2022-12-18T05:45:40;11.39;72.93
70826;SHT31;58446;41.490;22.098;2022-12-18T05:48:07;11.22;71.11
70826;SHT31;58446;41.490;22.098;2022-12-18T05:50:36;11.16;73.03
70826;SHT31;58446;41.490;22.098;2022-12-18T05:53:03;11.20;73.62
70826;SHT31;58446;41.490;22.098;2022-12-18T05:55:33;11.16;71.93
70826;SHT31;58446;41.490;22.098;2022-12-18T05:57:59;11.19;73.39
70826;SHT31;58446;41.490;22.098;2022-12-18T06:00:25;11.12;71.26
70826;SHT31;58446;41.490;22.098;2022-12-18T06:02:50;11.16;73.05
70826;SHT31;58446;41.490;22.098;2022-12-18T06:05:16;10.99;72.04
70826;SHT31;58446;41.490;22.098;2022-12-18T06:07:42;11.01;72.43
70826;SHT31;58446;41.490;22.098;2022-12-18T06:10:07;11.05;72.17
70826;SHT31;58446;41.490;22.098;2022-12-18T06:12:33;11.23;72.61
70826;SHT31;58446;41.490;22.098;2022-12-18T06:14:59;11.20;72.32
70826;SHT31;58446;41.490;22.098;2022-12-18T06:17:29;11.30;72.33
70826;SHT31;58446;41.490;22.098;2022-12-18T06:19:55;11.39;72.97
70826;SHT31;58446;41.490;22.098;2022-12-18T06:22:21;11.32;71.77
70826;SHT31;58446;41.490;22.098;2022-12-18T06:24:47;11.12;70.89
70826;SHT31;58446;41.490;22.098;2022-12-18T06:27:13;11.15;72.30
70826;SHT31;58446;41.490;22.098;2022-12-18T06:29:38;11.20;71.16
70826;SHT31;58446;41.490;22.098;2022-12-18T06:32:04;11.18;70.78
70826;SHT31;58446;41.490;22.098;2022-12-18T06:34:30;11.04;70.64
70826;SHT31;58446;41.490;22.098;2022-12-18T06:36:55;11.19;72.30
70826;SHT31;58446;41.490;22.098;2022-12-18T06:39:21;11.09;72.15
70826;SHT31;58446;41.490;22.098;2022-12-18T06:41:47;11.20;71.27
70826;SHT31;58446;41.490;22.098;2022-12-18T06:44:12;11.08;70.01
70826;SHT31;58446;41.490;22.098;2022-12-18T06:46:38;10.84;69.86
70826;SHT31;58446;41.490;22.098;2022-12-18T06:49:03;10.71;69.74
70826;SHT31;58446;41.490;22.098;2022-12-18T06:51:29;10.65;70.23
70826;SHT31;58446;41.490;22.098;2022-12-18T06:53:55;10.85;72.02
70826;SHT31;58446;41.490;22.098;2022-12-18T06:56:21;10.84;70.90
70826;SHT31;58446;41.490;22.098;2022-12-18T06:58:47;10.92;71.02
70826;SHT31;58446;41.490;22.098;2022-12-18T07:01:15;10.95;70.89
70826;SHT31;58446;41.490;22.098;2022-12-18T07:03:41;10.99;70.60
70826;SHT31;58446;41.490;22.098;2022-12-18T07:06:16;10.94;69.18
70826;SHT31;58446;41.490;22.098;2022-12-18T07:08:42;11.05;70.54
70826;SHT31;58446;41.490;22.098;2022-12-18T07:11:08;10.85;69.34
70826;SHT31;58446;41.490;22.098;2022-12-18T07:13:34;10.85;69.11
70826;SHT31;58446;41.490;22.098;2022-12-18T07:16:07;10.94;69.61
70826;SHT31;58446;41.490;22.098;2022-12-18T07:18:33;11.01;69.53
70826;SHT31;58446;41.490;22.098;2022-12-18T07:21:04;10.96;68.81
70826;SHT31;58446;41.490;22.098;2022-12-18T07:23:32;11.12;70.08
70826;SHT31;58446;41.490;22.098;2022-12-18T07:26:04;11.11;68.54
70826;SHT31;58446;41.490;22.098;2022-12-18T07:28:30;11.02;68.26
70826;SHT31;58446;41.490;22.098;2022-12-18T07:30:56;11.14;68.80
70826;SHT31;58446;41.490;22.098;2022-12-18T07:33:22;11.01;67.96
70826;SHT31;58446;41.490;22.098;2022-12-18T07:35:47;11.06;69.26
70826;SHT31;58446;41.490;22.098;2022-12-18T07:38:13;11.06;69.40
70826;SHT31;58446;41.490;22.098;2022-12-18T07:40:39;11.15;69.00
70826;SHT31;58446;41.490;22.098;2022-12-18T07:43:04;11.04;68.47
70826;SHT31;58446;41.490;22.098;2022-12-18T07:45:30;11.05;69.06
70826;SHT31;58446;41.490;22.098;2022-12-18T07:47:55;10.92;68.02
70826;SHT31;58446;41.490;22.098;2022-12-18T07:50:21;10.87;68.08
70826;SHT31;58446;41.490;22.098;2022-12-18T07:52:47;10.88;69.38
70826;SHT31;58446;41.490;22.098;2022-12-18T07:55:13;10.98;69.67
70826;SHT31;58446;41.490;22.098;2022-12-18T07:57:38;11.04;68.48
70826;SHT31;58446;41.490;22.098;2022-12-18T08:00:04;10.89;67.76
70826;SHT31;58446;41.490;22.098;2022-12-18T08:02:31;10.87;68.17
70826;SHT31;58446;41.490;22.098;2022-12-18T08:04:57;10.79;67.74
70826;SHT31;58446;41.490;22.098;2022-12-18T08:07:23;10.79;69.44
70826;SHT31;58446;41.490;22.098;2022-12-18T08:09:49;10.92;69.09
70826;SHT31;58446;41.490;22.098;2022-12-18T08:12:14;11.09;68.59
70826;SHT31;58446;41.490;22.098;2022-12-18T08:14:40;11.19;68.37
70826;SHT31;58446;41.490;22.098;2022-12-18T08:17:06;11.05;66.60
70826;SHT31;58446;41.490;22.098;2022-12-18T08:19:31;10.92;68.29
70826;SHT31;58446;41.490;22.098;2022-12-18T08:21:57;10.98;68.28
70826;SHT31;58446;41.490;22.098;2022-12-18T08:24:22;10.89;67.65
70826;SHT31;58446;41.490;22.098;2022-12-18T08:26:48;10.89;68.19
70826;SHT31;58446;41.490;22.098;2022-12-18T08:29:14;10.96;68.15
70826;SHT31;58446;41.490;22.098;2022-12-18T08:31:39;10.85;67.89
70826;SHT31;58446;41.490;22.098;2022-12-18T08:34:05;10.85;68.34
70826;SHT31;58446;41.490;22.098;2022-12-18T08:36:31;10.77;68.06
70826;SHT31;58446;41.490;22.098;2022-12-18T08:38:57;10.77;69.17
70826;SHT31;58446;41.490;22.098;2022-12-18T08:41:23;10.68;67.76
70826;SHT31;58446;41.490;22.098;2022-12-18T08:43:49;10.77;69.09
70826;SHT31;58446;41.490;22.098;2022-12-18T08:46:38;10.79;68.70
70826;SHT31;58446;41.490;22.098;2022-12-18T08:49:05;10.85;68.63
70826;SHT31;58446;41.490;22.098;2022-12-18T08:51:33;10.91;68.91
70826;SHT31;58446;41.490;22.098;2022-12-18T08:53:58;10.85;67.60
70826;SHT31;58446;41.490;22.098;2022-12-18T08:56:24;10.88;68.30
70826;SHT31;58446;41.490;22.098;2022-12-18T08:58:54;10.92;67.86
70826;SHT31;58446;41.490;22.098;2022-12-18T09:01:20;10.84;68.01
70826;SHT31;58446;41.490;22.098;2022-12-18T09:03:47;10.92;68.48
70826;SHT31;58446;41.490;22.098;2022-12-18T09:06:17;10.94;68.10
70826;SHT31;58446;41.490;22.098;2022-12-18T09:08:43;10.87;68.16
70826;SHT31;58446;41.490;22.098;2022-12-18T09:11:21;10.95;67.74
70826;SHT31;58446;41.490;22.098;2022-12-18T09:13:47;10.87;67.94
70826;SHT31;58446;41.490;22.098;2022-12-18T09:16:12;10.92;67.99
70826;SHT31;58446;41.490;22.098;2022-12-18T09:18:38;10.98;68.35
70826;SHT31;58446;41.490;22.098;2022-12-18T09:21:12;10.78;67.92
70826;SHT31;58446;41.490;22.098;2022-12-18T09:23:39;10.85;68.55
70826;SHT31;58446;41.490;22.098;2022-12-18T09:26:05;10.88;67.89
70826;SHT31;58446;41.490;22.098;2022-12-18T09:28:31;10.91;67.97
70826;SHT31;58446;41.490;22.098;2022-12-18T09:30:56;10.82;67.29
70826;SHT31;58446;41.490;22.098;2022-12-18T09:33:22;10.74;67.94
70826;SHT31;58446;41.490;22.098;2022-12-18T09:35:48;10.91;68.67
70826;SHT31;58446;41.490;22.098;2022-12-18T09:38:16;10.94;67.99
70826;SHT31;58446;41.490;22.098;2022-12-18T09:40:46;10.78;67.47
70826;SHT31;58446;41.490;22.098;2022-12-18T09:45:49;10.87;67.61
70826;SHT31;58446;41.490;22.098;2022-12-18T09:48:21;10.74;66.96
70826;SHT31;58446;41.490;22.098;2022-12-18T09:50:50;10.82;69.38
70826;SHT31;58446;41.490;22.098;2022-12-18T09:53:21;10.92;68.68
70826;SHT31;58446;41.490;22.098;2022-12-18T09:55:49;11.05;68.29
70826;SHT31;58446;41.490;22.098;2022-12-18T10:00:55;11.02;67.75
70826;SHT31;58446;41.490;22.098;2022-12-18T10:03:22;11.01;68.04
70826;SHT31;58446;41.490;22.098;2022-12-18T10:06:15;11.05;68.17
70826;SHT31;58446;41.490;22.098;2022-12-18T10:20:13;11.20;67.57
70826;SHT31;58446;41.490;22.098;2022-12-18T10:23:38;11.23;68.22
70826;SHT31;58446;41.490;22.098;2022-12-18T10:28:23;11.26;67.89
70826;SHT31;58446;41.490;22.098;2022-12-18T10:30:49;11.25;67.21
70826;SHT31;58446;41.490;22.098;2022-12-18T10:33:22;11.19;67.16
70826;SHT31;58446;41.490;22.098;2022-12-18T10:35:50;11.16;66.86
70826;SHT31;58446;41.490;22.098;2022-12-18T10:40:59;11.16;66.69
70826;SHT31;58446;41.490;22.098;2022-12-18T10:43:28;11.18;66.40
70826;SHT31;58446;41.490;22.098;2022-12-18T10:46:01;11.33;66.91
70826;SHT31;58446;41.490;22.098;2022-12-18T10:48:28;11.43;66.40
70826;SHT31;58446;41.490;22.098;2022-12-18T10:50:56;11.35;65.92
70826;SHT31;58446;41.490;22.098;2022-12-18T10:53:26;11.29;65.15
70826;SHT31;58446;41.490;22.098;2022-12-18T10:55:55;11.23;65.53
70826;SHT31;58446;41.490;22.098;2022-12-18T11:03:59;11.47;66.78
70826;SHT31;58446;41.490;22.098;2022-12-18T11:06:26;11.42;66.26
70826;SHT31;58446;41.490;22.098;2022-12-18T11:09:08;11.39;66.29
70826;SHT31;58446;41.490;22.098;2022-12-18T11:11:49;11.44;66.45
70826;SHT31;58446;41.490;22.098;2022-12-18T11:14:43;11.46;66.16
70826;SHT31;58446;41.490;22.098;2022-12-18T11:17:30;11.39;65.63
70826;SHT31;58446;41.490;22.098;2022-12-18T11:19:58;11.39;66.79
70826;SHT31;58446;41.490;22.098;2022-12-18T11:22:27;11.42;66.26
70826;SHT31;58446;41.490;22.098;2022-12-18T11:27:37;11.57;65.86
70826;SHT31;58446;41.490;22.098;2022-12-18T11:32:49;11.33;66.27
70826;SHT31;58446;41.490;22.098;2022-12-18T11:35:32;11.32;65.59
70826;SHT31;58446;41.490;22.098;2022-12-18T11:38:17;11.43;66.60
70826;SHT31;58446;41.490;22.098;2022-12-18T11:43:28;11.36;65.33
70826;SHT31;58446;41.490;22.098;2022-12-18T11:48:46;11.33;66.19
70826;SHT31;58446;41.490;22.098;2022-12-18T11:51:20;11.37;66.60
70826;SHT31;58446;41.490;22.098;2022-12-18T11:53:48;11.33;66.51
70826;SHT31;58446;41.490;22.098;2022-12-18T11:56:32;11.35;66.86
70826;SHT31;58446;41.490;22.098;2022-12-18T12:04:40;11.42;66.43
70826;SHT31;58446;41.490;22.098;2022-12-18T12:07:12;11.33;66.24
70826;SHT31;58446;41.490;22.098;2022-12-18T12:15:23;11.32;67.16
70826;SHT31;58446;41.490;22.098;2022-12-18T12:21:02;11.20;65.99
70826;SHT31;58446;41.490;22.098;2022-12-18T12:23:53;11.14;65.89
70826;SHT31;58446;41.490;22.098;2022-12-18T12:29:39;11.18;66.37
70826;SHT31;58446;41.490;22.098;2022-12-18T12:35:17;11.19;65.87
70826;SHT31;58446;41.490;22.098;2022-12-18T12:37:49;11.19;65.52
70826;SHT31;58446;41.490;22.098;2022-12-18T12:40:20;11.25;66.57
70826;SHT31;58446;41.490;22.098;2022-12-18T12:43:01;11.27;66.52
70826;SHT31;58446;41.490;22.098;2022-12-18T12:45:42;11.25;65.96
70826;SHT31;58446;41.490;22.098;2022-12-18T12:48:36;11.35;66.61
70826;SHT31;58446;41.490;22.098;2022-12-18T12:51:11;11.36;65.19
70826;SHT31;58446;41.490;22.098;2022-12-18T12:53:39;11.47;67.01
70826;SHT31;58446;41.490;22.098;2022-12-18T12:56:05;11.53;67.16
70826;SHT31;58446;41.490;22.098;2022-12-18T12:58:41;11.56;65.58
70826;SHT31;58446;41.490;22.098;2022-12-18T13:04:30;11.53;63.15
70826;SHT31;58446;41.490;22.098;2022-12-18T13:13:02;11.81;66.18
70826;SHT31;58446;41.490;22.098;2022-12-18T13:20:40;11.63;64.67
70826;SHT31;58446;41.490;22.098;2022-12-18T13:26:28;11.42;63.35
70826;SHT31;58446;41.490;22.098;2022-12-18T13:31:10;11.35;62.62
70826;SHT31;58446;41.490;22.098;2022-12-18T13:33:44;11.29;64.04
70826;SHT31;58446;41.490;22.098;2022-12-18T13:39:09;11.18;64.70
70826;SHT31;58446;41.490;22.098;2022-12-18T13:41:35;11.15;63.74
70826;SHT31;58446;41.490;22.098;2022-12-18T13:46:54;11.26;64.96
70826;SHT31;58446;41.490;22.098;2022-12-18T13:52:01;11.20;64.64
70826;SHT31;58446;41.490;22.098;2022-12-18T13:54:37;11.25;62.71
70826;SHT31;58446;41.490;22.098;2022-12-18T13:57:05;11.39;64.66
70826;SHT31;58446;41.490;22.098;2022-12-18T13:59:50;11.32;61.62
70826;SHT31;58446;41.490;22.098;2022-12-18T14:02:21;11.33;62.41
70826;SHT31;58446;41.490;22.098;2022-12-18T14:04:48;11.27;62.36
70826;SHT31;58446;41.490;22.098;2022-12-18T14:07:17;11.32;63.85
70826;SHT31;58446;41.490;22.098;2022-12-18T14:09:47;11.52;63.77
70826;SHT31;58446;41.490;22.098;2022-12-18T14:12:25;11.62;62.93
70826;SHT31;58446;41.490;22.098;2022-12-18T14:20:26;11.63;62.43
70826;SHT31;58446;41.490;22.098;2022-12-18T14:22:53;11.62;62.43
70826;SHT31;58446;41.490;22.098;2022-12-18T14:25:22;11.69;63.06
70826;SHT31;58446;41.490;22.098;2022-12-18T14:30:37;11.94;62.44
70826;SHT31;58446;41.490;22.098;2022-12-18T14:33:20;11.90;59.79
70826;SHT31;58446;41.490;22.098;2022-12-18T14:36:02;11.67;60.08
70826;SHT31;58446;41.490;22.098;2022-12-18T14:38:39;11.78;62.92
70826;SHT31;58446;41.490;22.098;2022-12-18T14:41:13;11.67;60.40
70826;SHT31;58446;41.490;22.098;2022-12-18T14:43:41;11.53;58.22
70826;SHT31;58446;41.490;22.098;2022-12-18T14:46:41;11.47;60.30
70826;SHT31;58446;41.490;22.098;2022-12-18T14:49:27;11.22;58.78
70826;SHT31;58446;41.490;22.098;2022-12-18T14:51:57;11.01;60.62
70826;SHT31;58446;41.490;22.098;2022-12-18T14:54:27;10.98;61.80
70826;SHT31;58446;41.490;22.098;2022-12-18T14:56:57;10.92;60.12
70826;SHT31;58446;41.490;22.098;2022-12-18T14:59:29;10.99;63.47
70826;SHT31;58446;41.490;22.098;2022-12-18T15:04:31;10.92;64.33
70826;SHT31;58446;41.490;22.098;2022-12-18T15:07:13;11.06;65.11
70826;SHT31;58446;41.490;22.098;2022-12-18T15:09:41;11.19;65.48
70826;SHT31;58446;41.490;22.098;2022-12-18T15:12:26;11.14;63.59
70826;SHT31;58446;41.490;22.098;2022-12-18T15:14:53;10.95;64.55
70826;SHT31;58446;41.490;22.098;2022-12-18T15:17:21;11.08;64.34
70826;SHT31;58446;41.490;22.098;2022-12-18T15:19:50;11.12;65.76
70826;SHT31;58446;41.490;22.098;2022-12-18T15:22:26;11.26;68.51
70826;SHT31;58446;41.490;22.098;2022-12-18T15:24:53;11.20;61.48
70826;SHT31;58446;41.490;22.098;2022-12-18T15:27:26;11.27;66.91
70826;SHT31;58446;41.490;22.098;2022-12-18T15:30:15;11.55;69.45
70826;SHT31;58446;41.490;22.098;2022-12-18T15:32:41;11.63;68.96
70826;SHT31;58446;41.490;22.098;2022-12-18T15:37:37;12.02;68.21
70826;SHT31;58446;41.490;22.098;2022-12-18T15:40:06;12.22;67.17
70826;SHT31;58446;41.490;22.098;2022-12-18T15:42:33;12.31;66.51
70826;SHT31;58446;41.490;22.098;2022-12-18T15:45:18;12.41;65.42
70826;SHT31;58446;41.490;22.098;2022-12-18T15:47:44;12.41;63.87
70826;SHT31;58446;41.490;22.098;2022-12-18T15:50:10;12.41;64.21
70826;SHT31;58446;41.490;22.098;2022-12-18T15:52:40;12.34;64.14
70826;SHT31;58446;41.490;22.098;2022-12-18T15:55:12;12.25;64.05
70826;SHT31;58446;41.490;22.098;2022-12-18T15:57:57;12.10;63.66
70826;SHT31;58446;41.490;22.098;2022-12-18T16:00:23;12.18;65.16
70826;SHT31;58446;41.490;22.098;2022-12-18T16:02:48;12.27;65.55
70826;SHT31;58446;41.490;22.098;2022-12-18T16:05:16;12.27;63.92
70826;SHT31;58446;41.490;22.098;2022-12-18T16:07:43;12.28;62.11
70826;SHT31;58446;41.490;22.098;2022-12-18T16:10:09;12.32;64.10
70826;SHT31;58446;41.490;22.098;2022-12-18T16:12:35;12.28;62.98
70826;SHT31;58446;41.490;22.098;2022-12-18T16:15:01;12.27;63.30
70826;SHT31;58446;41.490;22.098;2022-12-18T16:17:27;12.22;63.57
70826;SHT31;58446;41.490;22.098;2022-12-18T16:19:53;12.24;65.44
70826;SHT31;58446;41.490;22.098;2022-12-18T16:22:24;12.34;65.16
70826;SHT31;58446;41.490;22.098;2022-12-18T16:24:51;12.36;65.18
70826;SHT31;58446;41.490;22.098;2022-12-18T16:27:18;12.42;64.50
70826;SHT31;58446;41.490;22.098;2022-12-18T16:29:43;12.48;64.28
70826;SHT31;58446;41.490;22.098;2022-12-18T16:32:14;12.46;63.62
70826;SHT31;58446;41.490;22.098;2022-12-18T16:34:40;12.41;61.82
70826;SHT31;58446;41.490;22.098;2022-12-18T16:37:08;12.15;59.69
70826;SHT31;58446;41.490;22.098;2022-12-18T16:39:34;11.98;63.37
70826;SHT31;58446;41.490;22.098;2022-12-18T16:42:02;11.93;64.63
70826;SHT31;58446;41.490;22.098;2022-12-18T16:44:28;12.05;64.50
70826;SHT31;58446;41.490;22.098;2022-12-18T16:46:54;11.78;60.87
70826;SHT31;58446;41.490;22.098;2022-12-18T16:49:19;11.88;64.21
70826;SHT31;58446;41.490;22.098;2022-12-18T16:51:47;11.65;58.12
70826;SHT31;58446;41.490;22.098;2022-12-18T16:54:12;11.50;57.63
70826;SHT31;58446;41.490;22.098;2022-12-18T16:56:38;11.01;57.81
70826;SHT31;58446;41.490;22.098;2022-12-18T16:59:04;10.94;57.21
70826;SHT31;58446;41.490;22.098;2022-12-18T17:01:31;11.01;61.75
70826;SHT31;58446;41.490;22.098;2022-12-18T17:04:02;11.23;60.52
70826;SHT31;58446;41.490;22.098;2022-12-18T17:06:30;11.35;59.32
70826;SHT31;58446;41.490;22.098;2022-12-18T17:09:01;11.39;59.62
70826;SHT31;58446;41.490;22.098;2022-12-18T17:11:29;11.40;58.59
70826;SHT31;58446;41.490;22.098;2022-12-18T17:14:06;11.40;58.56
70826;SHT31;58446;41.490;22.098;2022-12-18T17:16:38;11.39;58.63
70826;SHT31;58446;41.490;22.098;2022-12-18T17:19:05;11.33;58.73
70826;SHT31;58446;41.490;22.098;2022-12-18T17:21:31;11.30;58.34
70826;SHT31;58446;41.490;22.098;2022-12-18T17:24:00;11.30;58.79
70826;SHT31;58446;41.490;22.098;2022-12-18T17:26:26;11.29;58.85
70826;SHT31;58446;41.490;22.098;2022-12-18T17:28:55;11.27;58.55
70826;SHT31;58446;41.490;22.098;2022-12-18T17:31:22;11.19;57.23